sensor_id;sensor_type;location;lat;lon;timestamp;temperature;humidity
46562;DHT22;32289;42.688;23.330;2022-07-23T00:02:14;21.00;90.00
46562;DHT22;32289;42.688;23.330;2022-07-23T00:05:55;20.90;90.30
46562;DHT22;32289;42.688;23.330;2022-07-23T00:09:36;20.90;90.30
46562;DHT22;32289;42.688;23.330;2022-07-23T00:13:16;20.90;90.60
46562;DHT22;32289;42.688;23.330;2022-07-23T00:16:57;20.80;90.60
46562;DHT22;32289;42.688;23.330;2022-07-23T00:20:38;20.70;91.00
46562;DHT22;32289;42.688;23.330;2022-07-23T00:24:18;20.70;91.40
46562;DHT22;32289;42.688;23.330;2022-07-23T00:28:01;20.70;91.20
46562;DHT22;32289;42.688;23.330;2022-07-23T00:31:41;20.60;91.70
46562;DHT22;32289;42.688;23.330;2022-07-23T00:35:26;20.50;92.30
46562;DHT22;32289;42.688;23.330;2022-07-23T00:39:07;20.30;92.80
46562;DHT22;32289;42.688;23.330;2022-07-23T00:42:48;20.50;92.00
46562;DHT22;32289;42.688;23.330;2022-07-23T00:46:29;20.50;91.80
46562;DHT22;32289;42.688;23.330;2022-07-23T00:50:10;20.50;92.20
46562;DHT22;32289;42.688;23.330;2022-07-23T00:53:51;20.50;92.30
46562;DHT22;32289;42.688;23.330;2022-07-23T00:57:32;20.20;92.40
46562;DHT22;32289;42.688;23.330;2022-07-23T01:01:13;20.30;93.00
46562;DHT22;32289;42.688;23.330;2022-07-23T01:04:54;20.30;88.70
46562;DHT22;32289;42.688;23.330;2022-07-23T01:08:35;20.30;90.70
46562;DHT22;32289;42.688;23.330;2022-07-23T01:12:15;20.40;87.30
46562;DHT22;32289;42.688;23.330;2022-07-23T01:15:56;20.40;87.70
46562;DHT22;32289;42.688;23.330;2022-07-23T01:19:37;20.40;87.10
46562;DHT22;32289;42.688;23.330;2022-07-23T01:23:17;20.40;88.30
46562;DHT22;32289;42.688;23.330;2022-07-23T01:26:58;20.50;87.60
46562;DHT22;32289;42.688;23.330;2022-07-23T01:30:39;20.40;86.70
46562;DHT22;32289;42.688;23.330;2022-07-23T01:34:19;20.30;87.10
46562;DHT22;32289;42.688;23.330;2022-07-23T01:38:00;20.40;86.60
46562;DHT22;32289;42.688;23.330;2022-07-23T01:41:41;20.30;88.40
46562;DHT22;32289;42.688;23.330;2022-07-23T01:45:21;20.20;90.10
46562;DHT22;32289;42.688;23.330;2022-07-23T01:49:02;20.10;90.60
46562;DHT22;32289;42.688;23.330;2022-07-23T01:52:43;20.20;90.80
46562;DHT22;32289;42.688;23.330;2022-07-23T01:56:23;20.10;90.80
46562;DHT22;32289;42.688;23.330;2022-07-23T02:00:05;19.90;91.10
46562;DHT22;32289;42.688;23.330;2022-07-23T02:03:45;19.80;91.60
46562;DHT22;32289;42.688;23.330;2022-07-23T02:07:26;19.70;91.60
46562;DHT22;32289;42.688;23.330;2022-07-23T02:11:08;19.60;91.90
46562;DHT22;32289;42.688;23.330;2022-07-23T02:14:48;19.50;92.60
46562;DHT22;32289;42.688;23.330;2022-07-23T02:18:29;19.40;93.30
46562;DHT22;32289;42.688;23.330;2022-07-23T02:22:10;19.40;93.80
46562;DHT22;32289;42.688;23.330;2022-07-23T02:25:50;19.40;94.10
46562;DHT22;32289;42.688;23.330;2022-07-23T02:29:31;19.30;94.50
46562;DHT22;32289;42.688;23.330;2022-07-23T02:33:11;19.20;94.40
46562;DHT22;32289;42.688;23.330;2022-07-23T02:36:52;18.90;94.90
46562;DHT22;32289;42.688;23.330;2022-07-23T02:40:33;19.20;94.30
46562;DHT22;32289;42.688;23.330;2022-07-23T02:44:13;19.20;94.90
46562;DHT22;32289;42.688;23.330;2022-07-23T02:47:54;19.10;95.00
46562;DHT22;32289;42.688;23.330;2022-07-23T02:51:35;19.00;95.60
46562;DHT22;32289;42.688;23.330;2022-07-23T02:55:15;18.80;96.00
46562;DHT22;32289;42.688;23.330;2022-07-23T02:58:56;18.80;96.20
46562;DHT22;32289;42.688;23.330;2022-07-23T03:02:37;18.80;96.50
46562;DHT22;32289;42.688;23.330;2022-07-23T03:06:17;18.70;96.70
46562;DHT22;32289;42.688;23.330;2022-07-23T03:09:58;18.70;97.10
46562;DHT22;32289;42.688;23.330;2022-07-23T03:13:39;18.70;97.30
46562;DHT22;32289;42.688;23.330;2022-07-23T03:17:20;18.80;97.50
46562;DHT22;32289;42.688;23.330;2022-07-23T03:21:01;18.80;97.80
46562;DHT22;32289;42.688;23.330;2022-07-23T03:24:42;18.70;97.90
46562;DHT22;32289;42.688;23.330;2022-07-23T03:28:34;18.80;97.90
46562;DHT22;32289;42.688;23.330;2022-07-23T03:32:15;18.80;98.00
46562;DHT22;32289;42.688;23.330;2022-07-23T03:35:56;18.80;98.30
46562;DHT22;32289;42.688;23.330;2022-07-23T03:39:36;18.80;98.10
46562;DHT22;32289;42.688;23.330;2022-07-23T03:43:17;18.90;97.90
46562;DHT22;32289;42.688;23.330;2022-07-23T03:46:58;18.90;97.80
46562;DHT22;32289;42.688;23.330;2022-07-23T03:50:39;18.90;97.70
46562;DHT22;32289;42.688;23.330;2022-07-23T03:54:20;19.00;97.50
46562;DHT22;32289;42.688;23.330;2022-07-23T03:58:01;19.20;97.00
46562;DHT22;32289;42.688;23.330;2022-07-23T04:01:42;19.50;96.10
46562;DHT22;32289;42.688;23.330;2022-07-23T04:05:22;20.70;92.10
46562;DHT22;32289;42.688;23.330;2022-07-23T04:09:03;21.40;89.40
46562;DHT22;32289;42.688;23.330;2022-07-23T04:12:44;22.10;83.30
46562;DHT22;32289;42.688;23.330;2022-07-23T04:16:25;21.90;84.00
46562;DHT22;32289;42.688;23.330;2022-07-23T04:20:06;22.20;82.20
46562;DHT22;32289;42.688;23.330;2022-07-23T04:23:47;22.70;79.90
46562;DHT22;32289;42.688;23.330;2022-07-23T04:27:28;22.70;79.50
46562;DHT22;32289;42.688;23.330;2022-07-23T04:31:08;23.50;76.70
46562;DHT22;32289;42.688;23.330;2022-07-23T04:34:49;23.10;77.10
46562;DHT22;32289;42.688;23.330;2022-07-23T04:38:30;23.10;79.30
46562;DHT22;32289;42.688;23.330;2022-07-23T04:42:12;25.00;70.80
46562;DHT22;32289;42.688;23.330;2022-07-23T04:45:53;26.40;66.10
46562;DHT22;32289;42.688;23.330;2022-07-23T04:49:34;26.50;65.70
46562;DHT22;32289;42.688;23.330;2022-07-23T04:53:14;27.30;63.20
46562;DHT22;32289;42.688;23.330;2022-07-23T04:56:55;27.50;60.40
46562;DHT22;32289;42.688;23.330;2022-07-23T05:00:36;25.80;65.50
46562;DHT22;32289;42.688;23.330;2022-07-23T05:04:16;25.20;65.90
46562;DHT22;32289;42.688;23.330;2022-07-23T05:07:57;26.70;62.60
46562;DHT22;32289;42.688;23.330;2022-07-23T05:11:38;26.80;63.10
46562;DHT22;32289;42.688;23.330;2022-07-23T05:15:19;27.30;63.20
46562;DHT22;32289;42.688;23.330;2022-07-23T05:18:59;27.70;61.50
46562;DHT22;32289;42.688;23.330;2022-07-23T05:22:40;27.70;59.10
46562;DHT22;32289;42.688;23.330;2022-07-23T05:26:21;27.00;61.00
46562;DHT22;32289;42.688;23.330;2022-07-23T05:30:02;28.10;61.10
46562;DHT22;32289;42.688;23.330;2022-07-23T05:33:43;28.20;59.70
46562;DHT22;32289;42.688;23.330;2022-07-23T05:37:24;27.90;60.30
46562;DHT22;32289;42.688;23.330;2022-07-23T05:41:05;29.50;56.30
46562;DHT22;32289;42.688;23.330;2022-07-23T05:44:45;28.10;59.00
46562;DHT22;32289;42.688;23.330;2022-07-23T05:48:26;29.30;58.30
46562;DHT22;32289;42.688;23.330;2022-07-23T05:52:07;27.90;58.60
46562;DHT22;32289;42.688;23.330;2022-07-23T05:55:48;28.90;58.40
46562;DHT22;32289;42.688;23.330;2022-07-23T05:59:29;29.10;58.10
46562;DHT22;32289;42.688;23.330;2022-07-23T06:03:10;30.60;54.60
46562;DHT22;32289;42.688;23.330;2022-07-23T06:06:51;30.60;53.30
46562;DHT22;32289;42.688;23.330;2022-07-23T06:10:32;30.80;53.10
46562;DHT22;32289;42.688;23.330;2022-07-23T06:14:12;30.40;55.20
46562;DHT22;32289;42.688;23.330;2022-07-23T06:17:53;30.70;54.00
46562;DHT22;32289;42.688;23.330;2022-07-23T06:21:34;32.00;51.10
46562;DHT22;32289;42.688;23.330;2022-07-23T06:25:14;31.20;51.40
46562;DHT22;32289;42.688;23.330;2022-07-23T06:28:56;31.60;52.60
46562;DHT22;32289;42.688;23.330;2022-07-23T06:32:37;30.20;54.30
46562;DHT22;32289;42.688;23.330;2022-07-23T06:36:18;32.70;50.20
46562;DHT22;32289;42.688;23.330;2022-07-23T06:39:58;33.90;49.40
46562;DHT22;32289;42.688;23.330;2022-07-23T06:43:39;32.30;52.20
46562;DHT22;32289;42.688;23.330;2022-07-23T06:47:20;32.60;50.30
46562;DHT22;32289;42.688;23.330;2022-07-23T06:51:01;32.40;50.50
46562;DHT22;32289;42.688;23.330;2022-07-23T06:54:42;32.30;51.60
46562;DHT22;32289;42.688;23.330;2022-07-23T06:58:22;32.40;50.10
46562;DHT22;32289;42.688;23.330;2022-07-23T07:02:03;34.70;46.60
46562;DHT22;32289;42.688;23.330;2022-07-23T07:05:44;34.90;46.20
46562;DHT22;32289;42.688;23.330;2022-07-23T07:09:25;34.60;46.40
46562;DHT22;32289;42.688;23.330;2022-07-23T07:13:06;35.50;45.00
46562;DHT22;32289;42.688;23.330;2022-07-23T07:16:46;35.40;44.50
46562;DHT22;32289;42.688;23.330;2022-07-23T07:20:27;34.00;47.40
46562;DHT22;32289;42.688;23.330;2022-07-23T07:24:08;35.30;46.30
46562;DHT22;32289;42.688;23.330;2022-07-23T07:27:49;36.20;45.20
46562;DHT22;32289;42.688;23.330;2022-07-23T07:31:30;35.80;44.00
46562;DHT22;32289;42.688;23.330;2022-07-23T07:35:10;35.80;46.00
46562;DHT22;32289;42.688;23.330;2022-07-23T07:38:51;35.00;47.20
46562;DHT22;32289;42.688;23.330;2022-07-23T07:42:32;33.70;48.10
46562;DHT22;32289;42.688;23.330;2022-07-23T07:46:13;33.80;48.10
46562;DHT22;32289;42.688;23.330;2022-07-23T07:49:53;33.40;48.50
46562;DHT22;32289;42.688;23.330;2022-07-23T07:53:34;36.10;45.70
46562;DHT22;32289;42.688;23.330;2022-07-23T07:57:15;37.60;43.70
46562;DHT22;32289;42.688;23.330;2022-07-23T08:00:55;35.40;43.40
46562;DHT22;32289;42.688;23.330;2022-07-23T08:04:36;35.10;45.20
46562;DHT22;32289;42.688;23.330;2022-07-23T08:08:17;35.80;45.40
46562;DHT22;32289;42.688;23.330;2022-07-23T08:11:57;35.30;45.70
46562;DHT22;32289;42.688;23.330;2022-07-23T08:15:38;35.10;46.40
46562;DHT22;32289;42.688;23.330;2022-07-23T08:19:19;36.20;44.80
46562;DHT22;32289;42.688;23.330;2022-07-23T08:23:04;35.90;45.90
46562;DHT22;32289;42.688;23.330;2022-07-23T08:26:45;36.30;44.70
46562;DHT22;32289;42.688;23.330;2022-07-23T08:30:27;35.90;45.40
46562;DHT22;32289;42.688;23.330;2022-07-23T08:34:08;35.00;45.90
46562;DHT22;32289;42.688;23.330;2022-07-23T08:37:49;35.60;46.00
46562;DHT22;32289;42.688;23.330;2022-07-23T08:41:29;34.60;46.60
46562;DHT22;32289;42.688;23.330;2022-07-23T08:45:11;36.00;45.20
46562;DHT22;32289;42.688;23.330;2022-07-23T08:48:54;36.40;44.50
46562;DHT22;32289;42.688;23.330;2022-07-23T08:52:36;36.60;44.60
46562;DHT22;32289;42.688;23.330;2022-07-23T08:56:16;36.30;45.50
46562;DHT22;32289;42.688;23.330;2022-07-23T08:59:57;35.70;45.90
46562;DHT22;32289;42.688;23.330;2022-07-23T09:03:38;36.20;45.00
46562;DHT22;32289;42.688;23.330;2022-07-23T09:07:20;36.30;46.60
46562;DHT22;32289;42.688;23.330;2022-07-23T09:11:02;35.90;44.70
46562;DHT22;32289;42.688;23.330;2022-07-23T09:14:44;36.40;45.70
46562;DHT22;32289;42.688;23.330;2022-07-23T09:22:20;36.50;45.00
46562;DHT22;32289;42.688;23.330;2022-07-23T09:26:02;36.50;44.40
46562;DHT22;32289;42.688;23.330;2022-07-23T09:29:55;38.90;43.10
46562;DHT22;32289;42.688;23.330;2022-07-23T09:33:37;39.50;41.00
46562;DHT22;32289;42.688;23.330;2022-07-23T09:37:19;39.90;40.60
46562;DHT22;32289;42.688;23.330;2022-07-23T09:41:10;38.90;41.00
46562;DHT22;32289;42.688;23.330;2022-07-23T09:44:53;39.00;40.90
46562;DHT22;32289;42.688;23.330;2022-07-23T09:48:34;38.10;41.50
46562;DHT22;32289;42.688;23.330;2022-07-23T09:52:28;38.50;41.20
46562;DHT22;32289;42.688;23.330;2022-07-23T09:56:12;38.90;40.80
46562;DHT22;32289;42.688;23.330;2022-07-23T09:59:58;38.90;39.50
46562;DHT22;32289;42.688;23.330;2022-07-23T10:03:41;39.00;39.10
46562;DHT22;32289;42.688;23.330;2022-07-23T10:07:23;37.80;40.70
46562;DHT22;32289;42.688;23.330;2022-07-23T10:11:08;37.70;41.20
46562;DHT22;32289;42.688;23.330;2022-07-23T10:14:50;37.10;39.90
46562;DHT22;32289;42.688;23.330;2022-07-23T10:18:31;37.10;40.10
46562;DHT22;32289;42.688;23.330;2022-07-23T10:22:24;37.00;40.70
46562;DHT22;32289;42.688;23.330;2022-07-23T10:38:13;39.10;37.90
46562;DHT22;32289;42.688;23.330;2022-07-23T10:42:14;37.50;37.80
46562;DHT22;32289;42.688;23.330;2022-07-23T10:45:56;37.70;37.40
46562;DHT22;32289;42.688;23.330;2022-07-23T10:49:37;39.10;37.70
46562;DHT22;32289;42.688;23.330;2022-07-23T10:53:19;39.40;36.80
46562;DHT22;32289;42.688;23.330;2022-07-23T11:00:41;38.10;36.50
46562;DHT22;32289;42.688;23.330;2022-07-23T11:04:48;37.90;38.10
46562;DHT22;32289;42.688;23.330;2022-07-23T11:08:29;37.50;37.70
46562;DHT22;32289;42.688;23.330;2022-07-23T11:24:07;38.40;34.70
46562;DHT22;32289;42.688;23.330;2022-07-23T11:27:51;38.50;35.00
46562;DHT22;32289;42.688;23.330;2022-07-23T11:31:32;39.30;34.80
46562;DHT22;32289;42.688;23.330;2022-07-23T11:35:24;39.00;34.70
46562;DHT22;32289;42.688;23.330;2022-07-23T11:39:06;38.50;33.20
46562;DHT22;32289;42.688;23.330;2022-07-23T11:43:02;38.50;33.60
46562;DHT22;32289;42.688;23.330;2022-07-23T11:46:55;37.80;33.60
46562;DHT22;32289;42.688;23.330;2022-07-23T11:50:36;38.20;33.30
46562;DHT22;32289;42.688;23.330;2022-07-23T11:54:17;38.30;32.90
46562;DHT22;32289;42.688;23.330;2022-07-23T11:57:58;38.00;33.40
46562;DHT22;32289;42.688;23.330;2022-07-23T12:02:02;36.90;33.70
46562;DHT22;32289;42.688;23.330;2022-07-23T12:05:43;37.60;32.40
46562;DHT22;32289;42.688;23.330;2022-07-23T12:09:24;37.30;33.10
46562;DHT22;32289;42.688;23.330;2022-07-23T12:13:10;37.10;32.90
46562;DHT22;32289;42.688;23.330;2022-07-23T12:17:21;36.70;34.60
46562;DHT22;32289;42.688;23.330;2022-07-23T12:21:04;36.70;34.30
46562;DHT22;32289;42.688;23.330;2022-07-23T12:25:00;37.20;34.90
46562;DHT22;32289;42.688;23.330;2022-07-23T12:28:41;37.00;33.50
46562;DHT22;32289;42.688;23.330;2022-07-23T12:32:28;37.00;34.70
46562;DHT22;32289;42.688;23.330;2022-07-23T12:36:09;37.30;35.40
46562;DHT22;32289;42.688;23.330;2022-07-23T12:39:51;37.00;34.40
46562;DHT22;32289;42.688;23.330;2022-07-23T12:43:35;36.60;34.60
46562;DHT22;32289;42.688;23.330;2022-07-23T12:47:16;36.20;35.40
46562;DHT22;32289;42.688;23.330;2022-07-23T12:51:02;36.70;35.00
46562;DHT22;32289;42.688;23.330;2022-07-23T12:54:43;36.60;34.70
46562;DHT22;32289;42.688;23.330;2022-07-23T12:58:24;36.60;34.80
46562;DHT22;32289;42.688;23.330;2022-07-23T13:02:08;36.60;33.70
46562;DHT22;32289;42.688;23.330;2022-07-23T13:05:49;35.90;33.00
46562;DHT22;32289;42.688;23.330;2022-07-23T13:09:32;36.00;34.20
46562;DHT22;32289;42.688;23.330;2022-07-23T13:13:13;35.90;33.50
46562;DHT22;32289;42.688;23.330;2022-07-23T13:16:54;35.90;33.30
46562;DHT22;32289;42.688;23.330;2022-07-23T13:20:35;36.00;33.10
46562;DHT22;32289;42.688;23.330;2022-07-23T13:24:16;35.90;33.40
46562;DHT22;32289;42.688;23.330;2022-07-23T13:27:57;35.80;33.10
46562;DHT22;32289;42.688;23.330;2022-07-23T13:31:38;35.80;33.60
46562;DHT22;32289;42.688;23.330;2022-07-23T13:35:19;36.00;33.90
46562;DHT22;32289;42.688;23.330;2022-07-23T13:39:00;35.90;33.70
46562;DHT22;32289;42.688;23.330;2022-07-23T13:42:40;35.60;32.50
46562;DHT22;32289;42.688;23.330;2022-07-23T13:46:21;35.60;33.70
46562;DHT22;32289;42.688;23.330;2022-07-23T13:50:03;35.40;33.90
46562;DHT22;32289;42.688;23.330;2022-07-23T13:53:45;35.40;32.60
46562;DHT22;32289;42.688;23.330;2022-07-23T13:57:27;35.60;33.50
46562;DHT22;32289;42.688;23.330;2022-07-23T14:01:07;35.40;33.30
46562;DHT22;32289;42.688;23.330;2022-07-23T14:04:49;35.30;33.60
46562;DHT22;32289;42.688;23.330;2022-07-23T14:08:29;35.10;34.20
46562;DHT22;32289;42.688;23.330;2022-07-23T14:12:10;35.10;34.00
46562;DHT22;32289;42.688;23.330;2022-07-23T14:15:51;34.90;33.80
46562;DHT22;32289;42.688;23.330;2022-07-23T14:19:32;34.90;34.10
46562;DHT22;32289;42.688;23.330;2022-07-23T14:23:12;35.00;34.40
46562;DHT22;32289;42.688;23.330;2022-07-23T14:26:53;35.10;33.40
46562;DHT22;32289;42.688;23.330;2022-07-23T14:30:34;35.10;33.20
46562;DHT22;32289;42.688;23.330;2022-07-23T14:34:15;35.10;35.10
46562;DHT22;32289;42.688;23.330;2022-07-23T14:37:56;35.10;35.50
46562;DHT22;32289;42.688;23.330;2022-07-23T14:41:37;34.90;36.00
46562;DHT22;32289;42.688;23.330;2022-07-23T14:45:18;34.90;35.80
46562;DHT22;32289;42.688;23.330;2022-07-23T14:48:58;34.70;35.40
46562;DHT22;32289;42.688;23.330;2022-07-23T14:52:39;34.80;35.50
46562;DHT22;32289;42.688;23.330;2022-07-23T14:56:26;34.70;35.40
46562;DHT22;32289;42.688;23.330;2022-07-23T15:00:07;34.70;35.20
46562;DHT22;32289;42.688;23.330;2022-07-23T15:03:49;34.70;36.00
46562;DHT22;32289;42.688;23.330;2022-07-23T15:07:30;34.80;34.90
46562;DHT22;32289;42.688;23.330;2022-07-23T15:11:11;34.90;35.10
46562;DHT22;32289;42.688;23.330;2022-07-23T15:14:51;34.80;35.00
46562;DHT22;32289;42.688;23.330;2022-07-23T15:18:32;34.80;35.80
46562;DHT22;32289;42.688;23.330;2022-07-23T15:22:13;34.80;35.50
46562;DHT22;32289;42.688;23.330;2022-07-23T15:25:57;34.80;35.70
46562;DHT22;32289;42.688;23.330;2022-07-23T15:29:38;34.70;36.00
46562;DHT22;32289;42.688;23.330;2022-07-23T15:33:19;34.50;39.40
46562;DHT22;32289;42.688;23.330;2022-07-23T15:37:00;34.30;40.20
46562;DHT22;32289;42.688;23.330;2022-07-23T15:40:41;34.40;40.40
46562;DHT22;32289;42.688;23.330;2022-07-23T15:44:22;34.20;40.40
46562;DHT22;32289;42.688;23.330;2022-07-23T15:48:03;34.20;40.70
46562;DHT22;32289;42.688;23.330;2022-07-23T15:51:44;34.20;40.90
46562;DHT22;32289;42.688;23.330;2022-07-23T15:55:25;34.00;40.20
46562;DHT22;32289;42.688;23.330;2022-07-23T15:59:07;33.90;40.10
46562;DHT22;32289;42.688;23.330;2022-07-23T16:02:48;33.90;40.70
46562;DHT22;32289;42.688;23.330;2022-07-23T16:06:29;33.90;40.50
46562;DHT22;32289;42.688;23.330;2022-07-23T16:10:11;33.90;40.00
46562;DHT22;32289;42.688;23.330;2022-07-23T16:13:53;33.80;40.80
46562;DHT22;32289;42.688;23.330;2022-07-23T16:17:33;33.70;40.40
46562;DHT22;32289;42.688;23.330;2022-07-23T16:21:14;33.70;40.40
46562;DHT22;32289;42.688;23.330;2022-07-23T16:24:55;33.60;41.00
46562;DHT22;32289;42.688;23.330;2022-07-23T16:28:35;33.60;40.90
46562;DHT22;32289;42.688;23.330;2022-07-23T16:32:16;33.50;40.90
46562;DHT22;32289;42.688;23.330;2022-07-23T16:35:57;33.40;40.70
46562;DHT22;32289;42.688;23.330;2022-07-23T16:39:38;33.40;41.00
46562;DHT22;32289;42.688;23.330;2022-07-23T16:43:19;33.20;41.20
46562;DHT22;32289;42.688;23.330;2022-07-23T16:47:00;33.00;41.80
46562;DHT22;32289;42.688;23.330;2022-07-23T16:50:41;33.00;42.20
46562;DHT22;32289;42.688;23.330;2022-07-23T16:54:22;32.90;42.60
46562;DHT22;32289;42.688;23.330;2022-07-23T16:58:04;32.70;42.50
46562;DHT22;32289;42.688;23.330;2022-07-23T17:01:45;32.60;43.10
46562;DHT22;32289;42.688;23.330;2022-07-23T17:05:25;32.40;44.70
46562;DHT22;32289;42.688;23.330;2022-07-23T17:09:06;32.30;43.60
46562;DHT22;32289;42.688;23.330;2022-07-23T17:12:48;32.10;43.70
46562;DHT22;32289;42.688;23.330;2022-07-23T17:16:31;31.90;45.30
46562;DHT22;32289;42.688;23.330;2022-07-23T17:20:12;31.80;46.60
46562;DHT22;32289;42.688;23.330;2022-07-23T17:23:53;31.70;46.50
46562;DHT22;32289;42.688;23.330;2022-07-23T17:27:33;31.30;47.60
46562;DHT22;32289;42.688;23.330;2022-07-23T17:31:17;31.20;48.90
46562;DHT22;32289;42.688;23.330;2022-07-23T17:34:57;31.10;50.00
46562;DHT22;32289;42.688;23.330;2022-07-23T17:38:38;30.90;50.70
46562;DHT22;32289;42.688;23.330;2022-07-23T17:42:19;30.50;51.80
46562;DHT22;32289;42.688;23.330;2022-07-23T17:45:59;30.40;52.10
46562;DHT22;32289;42.688;23.330;2022-07-23T17:49:40;30.20;52.80
46562;DHT22;32289;42.688;23.330;2022-07-23T17:53:21;29.90;53.20
46562;DHT22;32289;42.688;23.330;2022-07-23T17:57:03;29.60;53.20
46562;DHT22;32289;42.688;23.330;2022-07-23T18:00:44;29.30;53.60
46562;DHT22;32289;42.688;23.330;2022-07-23T18:04:25;29.20;54.10
46562;DHT22;32289;42.688;23.330;2022-07-23T18:08:06;29.00;54.70
46562;DHT22;32289;42.688;23.330;2022-07-23T18:11:47;28.90;54.90
46562;DHT22;32289;42.688;23.330;2022-07-23T18:15:28;29.00;53.90
46562;DHT22;32289;42.688;23.330;2022-07-23T18:19:09;29.00;54.20
46562;DHT22;32289;42.688;23.330;2022-07-23T18:22:49;28.80;55.20
46562;DHT22;32289;42.688;23.330;2022-07-23T18:26:30;28.50;55.90
46562;DHT22;32289;42.688;23.330;2022-07-23T18:30:11;28.30;56.00
46562;DHT22;32289;42.688;23.330;2022-07-23T18:33:52;28.20;56.10
46562;DHT22;32289;42.688;23.330;2022-07-23T18:37:33;28.20;56.50
46562;DHT22;32289;42.688;23.330;2022-07-23T18:41:14;28.20;56.30
46562;DHT22;32289;42.688;23.330;2022-07-23T18:44:55;28.20;56.80
46562;DHT22;32289;42.688;23.330;2022-07-23T18:48:35;27.90;57.10
46562;DHT22;32289;42.688;23.330;2022-07-23T18:52:16;27.70;56.90
46562;DHT22;32289;42.688;23.330;2022-07-23T18:55:57;27.90;57.70
46562;DHT22;32289;42.688;23.330;2022-07-23T18:59:37;27.90;56.70
46562;DHT22;32289;42.688;23.330;2022-07-23T19:03:18;27.80;57.20
46562;DHT22;32289;42.688;23.330;2022-07-23T19:06:59;27.60;57.80
46562;DHT22;32289;42.688;23.330;2022-07-23T19:10:40;27.30;59.10
46562;DHT22;32289;42.688;23.330;2022-07-23T19:14:20;27.30;59.40
46562;DHT22;32289;42.688;23.330;2022-07-23T19:18:02;27.10;59.60
46562;DHT22;32289;42.688;23.330;2022-07-23T19:21:43;26.90;60.00
46562;DHT22;32289;42.688;23.330;2022-07-23T19:25:24;26.80;60.20
46562;DHT22;32289;42.688;23.330;2022-07-23T19:29:04;27.00;59.40
46562;DHT22;32289;42.688;23.330;2022-07-23T19:32:45;27.00;59.20
46562;DHT22;32289;42.688;23.330;2022-07-23T19:36:26;27.00;59.80
46562;DHT22;32289;42.688;23.330;2022-07-23T19:40:08;26.80;60.70
46562;DHT22;32289;42.688;23.330;2022-07-23T19:43:49;26.50;61.50
46562;DHT22;32289;42.688;23.330;2022-07-23T19:47:29;26.30;61.70
46562;DHT22;32289;42.688;23.330;2022-07-23T19:51:10;26.20;62.00
46562;DHT22;32289;42.688;23.330;2022-07-23T19:54:51;26.10;61.80
46562;DHT22;32289;42.688;23.330;2022-07-23T19:58:31;26.10;62.00
46562;DHT22;32289;42.688;23.330;2022-07-23T20:02:12;26.10;62.10
46562;DHT22;32289;42.688;23.330;2022-07-23T20:05:53;26.00;62.40
46562;DHT22;32289;42.688;23.330;2022-07-23T20:09:34;26.10;61.50
46562;DHT22;32289;42.688;23.330;2022-07-23T20:13:14;26.00;62.20
46562;DHT22;32289;42.688;23.330;2022-07-23T20:16:57;25.70;63.50
46562;DHT22;32289;42.688;23.330;2022-07-23T20:20:37;25.40;63.70
46562;DHT22;32289;42.688;23.330;2022-07-23T20:24:18;25.40;63.90
46562;DHT22;32289;42.688;23.330;2022-07-23T20:28:01;25.50;63.10
46562;DHT22;32289;42.688;23.330;2022-07-23T20:31:44;25.50;62.30
46562;DHT22;32289;42.688;23.330;2022-07-23T20:35:25;25.50;62.90
46562;DHT22;32289;42.688;23.330;2022-07-23T20:39:07;25.40;63.80
46562;DHT22;32289;42.688;23.330;2022-07-23T20:42:48;25.50;63.80
46562;DHT22;32289;42.688;23.330;2022-07-23T20:46:30;25.40;64.60
46562;DHT22;32289;42.688;23.330;2022-07-23T20:50:11;25.40;64.60
46562;DHT22;32289;42.688;23.330;2022-07-23T20:53:52;25.00;65.50
46562;DHT22;32289;42.688;23.330;2022-07-23T20:57:32;24.80;66.40
46562;DHT22;32289;42.688;23.330;2022-07-23T21:01:13;24.70;67.10
46562;DHT22;32289;42.688;23.330;2022-07-23T21:04:54;24.60;67.40
46562;DHT22;32289;42.688;23.330;2022-07-23T21:08:35;24.60;66.40
46562;DHT22;32289;42.688;23.330;2022-07-23T21:12:16;24.50;65.90
46562;DHT22;32289;42.688;23.330;2022-07-23T21:15:57;24.50;65.60
46562;DHT22;32289;42.688;23.330;2022-07-23T21:19:38;24.50;67.00
46562;DHT22;32289;42.688;23.330;2022-07-23T21:23:19;24.20;66.60
46562;DHT22;32289;42.688;23.330;2022-07-23T21:27:00;24.20;66.80
46562;DHT22;32289;42.688;23.330;2022-07-23T21:30:40;24.40;66.20
46562;DHT22;32289;42.688;23.330;2022-07-23T21:34:22;24.20;66.40
46562;DHT22;32289;42.688;23.330;2022-07-23T21:38:04;24.20;66.40
46562;DHT22;32289;42.688;23.330;2022-07-23T21:41:46;24.10;67.30
46562;DHT22;32289;42.688;23.330;2022-07-23T21:45:26;24.00;68.00
46562;DHT22;32289;42.688;23.330;2022-07-23T21:49:07;24.10;68.30
46562;DHT22;32289;42.688;23.330;2022-07-23T21:52:48;24.00;68.50
46562;DHT22;32289;42.688;23.330;2022-07-23T21:56:29;23.90;69.60
46562;DHT22;32289;42.688;23.330;2022-07-23T22:00:18;23.80;69.50
46562;DHT22;32289;42.688;23.330;2022-07-23T22:04:02;23.80;70.00
46562;DHT22;32289;42.688;23.330;2022-07-23T22:07:45;23.70;70.30
46562;DHT22;32289;42.688;23.330;2022-07-23T22:11:25;23.70;70.60
46562;DHT22;32289;42.688;23.330;2022-07-23T22:15:08;23.70;71.20
46562;DHT22;32289;42.688;23.330;2022-07-23T22:18:50;23.60;71.80
46562;DHT22;32289;42.688;23.330;2022-07-23T22:22:30;23.50;72.00
46562;DHT22;32289;42.688;23.330;2022-07-23T22:26:11;23.20;71.80
46562;DHT22;32289;42.688;23.330;2022-07-23T22:29:52;23.30;71.50
46562;DHT22;32289;42.688;23.330;2022-07-23T22:33:33;23.40;71.90
46562;DHT22;32289;42.688;23.330;2022-07-23T22:37:13;23.40;72.50
46562;DHT22;32289;42.688;23.330;2022-07-23T22:40:54;23.40;72.50
46562;DHT22;32289;42.688;23.330;2022-07-23T22:44:35;23.40;71.90
46562;DHT22;32289;42.688;23.330;2022-07-23T22:48:15;23.40;72.70
46562;DHT22;32289;42.688;23.330;2022-07-23T22:51:57;23.30;72.70
46562;DHT22;32289;42.688;23.330;2022-07-23T22:55:38;23.20;73.20
46562;DHT22;32289;42.688;23.330;2022-07-23T22:59:18;23.10;74.30
46562;DHT22;32289;42.688;23.330;2022-07-23T23:02:59;23.00;75.10
46562;DHT22;32289;42.688;23.330;2022-07-23T23:06:40;22.90;76.40
46562;DHT22;32289;42.688;23.330;2022-07-23T23:10:21;22.50;77.00
46562;DHT22;32289;42.688;23.330;2022-07-23T23:14:02;22.60;77.10
46562;DHT22;32289;42.688;23.330;2022-07-23T23:17:42;22.70;77.00
46562;DHT22;32289;42.688;23.330;2022-07-23T23:21:23;22.70;76.80
46562;DHT22;32289;42.688;23.330;2022-07-23T23:25:05;22.60;75.70
46562;DHT22;32289;42.688;23.330;2022-07-23T23:28:46;22.40;77.90